ADDS METAR Data INFO
IDs: Format: Raw Decoded Include TAF

Data at: 0435 UTC 24 Apr 2018

KCOM 240415Z AUTO 09003KT 10SM CLR 17/06 A3006 RMK AO2 T01700055
KCOM 240355Z AUTO 00000KT 10SM CLR 17/05 A3006 RMK AO2 T01710052
KCOM 240335Z AUTO 08003KT 10SM CLR 17/04 A3006 RMK AO2 T01710041
KCOM 240315Z AUTO 06004KT 10SM CLR 17/04 A3005 RMK AO2 T01720039
KCOM 240255Z AUTO 05005KT 10SM CLR 18/04 A3005 RMK AO2 T01800043
KCOM 240235Z AUTO 05003KT 10SM CLR 19/04 A3004 RMK AO2 T01860041
KCOM 240215Z AUTO 05004KT 10SM CLR 20/04 A3003 RMK AO2 T01960040
KCOM 240155Z AUTO 05003KT 10SM CLR 21/04 A3003 RMK AO2 T02050039
KCOM 240135Z AUTO 04006KT 10SM CLR 21/04 A3003 RMK AO2 T02130042
KCOM 240115Z AUTO 03005KT 10SM CLR 23/04 A3002 RMK AO2 T02280043
KCOM 240055Z AUTO 05004KT 10SM CLR 25/04 A3002 RMK AO2 T02450043
KCOM 240035Z AUTO 05005KT 10SM CLR 25/05 A3002 RMK AO2 T02520045
KCOM 240015Z AUTO 05005KT 10SM CLR 26/05 A3002 RMK AO2 T02570045
KCOM 232355Z AUTO 07003KT 10SM CLR 26/05 A3002 RMK AO2 T02610046 10272 20222
KCOM 232335Z AUTO 01003KT 10SM CLR 27/05 A3002 RMK AO2 T02650047
KCOM 232315Z AUTO 01004KT 10SM CLR 27/05 A3002 RMK AO2 T02650046
KCOM 232255Z AUTO 35006KT 10SM CLR 27/05 A3002 RMK AO2 T02670049
KCOM 232235Z AUTO 36006KT 10SM CLR 27/05 A3003 RMK AO2 T02690051
KCOM 232215Z AUTO 00000KT 10SM CLR 27/05 A3003 RMK AO2 T02680050
KCOM 232155Z AUTO 34005KT 10SM CLR 27/05 A3003 RMK AO2 T02700052
KCOM 232135Z AUTO 33006KT 10SM CLR 26/05 A3004 RMK AO2 T02630052
KCOM 232115Z AUTO 00000KT 10SM CLR 27/05 A3005 RMK AO2 T02650052
KCOM 232055Z AUTO 00000KT 10SM CLR 26/05 A3006 RMK AO2 T02600052
KCOM 232035Z AUTO 33003KT 10SM CLR 26/06 A3007 RMK AO2 T02600055
KCOM 232015Z AUTO 03007G17KT 010V080 10SM CLR 25/06 A3008 RMK AO2 T02530056
KCOM 231955Z AUTO 00000KT 10SM CLR 25/06 A3009 RMK AO2 T02540059
KCOM 231935Z AUTO 01006KT 10SM CLR 25/06 A3010 RMK AO2 T02450059
KCOM 231915Z AUTO 00000KT 10SM CLR 24/06 A3011 RMK AO2 T02430059
KCOM 231855Z AUTO 00000KT 10SM CLR 24/06 A3012 RMK AO2 T02390060
KCOM 231835Z AUTO 36005KT 10SM CLR 24/06 A3013 RMK AO2 T02360062
KCOM 231815Z AUTO 13003KT 10SM CLR 23/06 A3014 RMK AO2 T02260059
KCOM 231755Z AUTO 34005KT 10SM CLR 22/06 A3015 RMK AO2 T02220059 10226 20070
KCOM 231735Z AUTO 34005KT 10SM CLR 22/06 A3016 RMK AO2 T02180058
KCOM 231715Z AUTO 02005KT 10SM CLR 22/06 A3017 RMK AO2 T02160059
KCOM 231655Z AUTO 03006KT 10SM CLR 21/06 A3017 RMK AO2 T02060057
KCOM 231635Z AUTO 02007KT 10SM CLR 21/05 A3017 RMK AO2 T02050053
KCOM 231615Z AUTO 36010G14KT 10SM CLR 20/05 A3017 RMK AO2 T01960048
KCOM 231555Z AUTO 04010G16KT 10SM CLR 20/05 A3018 RMK AO2 T01950053
KCOM 231535Z AUTO 01006KT 10SM CLR 18/05 A3018 RMK AO2 T01840053
KCOM 231515Z AUTO 35006KT 10SM CLR 18/06 A3018 RMK AO2 T01770063
KCOM 231455Z AUTO 36004KT 10SM CLR 17/07 A3018 RMK AO2 T01680065
KCOM 231435Z AUTO 35007KT 10SM CLR 16/06 A3018 RMK AO2 T01600063
KCOM 231415Z AUTO 35008KT 10SM CLR 15/06 A3018 RMK AO2 T01500062
KCOM 231355Z AUTO 36008KT 10SM CLR 14/06 A3018 RMK AO2 T01390063
KCOM 231335Z AUTO 36007KT 10SM CLR 13/06 A3018 RMK AO2 T01310064
KCOM 231315Z AUTO 34006KT 10SM CLR 12/06 A3018 RMK AO2 T01190056
KCOM 231255Z AUTO 34003KT 10SM CLR 09/05 A3017 RMK AO2 T00930046
KCOM 231235Z AUTO 33003KT 10SM CLR 09/04 A3016 RMK AO2 T00910041
KCOM 231215Z AUTO 28006KT 10SM CLR 07/04 A3015 RMK AO2 T00730036
KCOM 231155Z AUTO 27005KT 10SM CLR 07/04 A3014 RMK AO2 T00700035 10113 20070
KCOM 231135Z AUTO 28005KT 10SM CLR 08/04 A3013 RMK AO2 T00750036
KCOM 231115Z AUTO 27007KT 10SM CLR 07/04 A3012 RMK AO2 T00730035
KCOM 231055Z AUTO 27004KT 10SM CLR 08/04 A3012 RMK AO2 T00820037
KCOM 231035Z AUTO 26005KT 10SM CLR 09/04 A3012 RMK AO2 T00860038
KCOM 231015Z AUTO 25004KT 10SM CLR 08/04 A3011 RMK AO2 T00800035
KCOM 230950Z AUTO 30005KT 10SM CLR 09/04 A3010 RMK AO2 T00880040
KCOM 230935Z AUTO 31003KT 10SM CLR 09/04 A3009 RMK AO2 T00910040
KCOM 230915Z AUTO 31003KT 10SM CLR 09/04 A3009 RMK AO2 T00880036
KCOM 230855Z AUTO 00000KT 10SM CLR 10/04 A3009 RMK AO2 T00970038
KCOM 230835Z AUTO 00000KT 10SM CLR 09/03 A3009 RMK AO2 T00890033
KCOM 230815Z AUTO 34004KT 10SM CLR 10/04 A3009 RMK AO2 T01030036
KCOM 230755Z AUTO 00000KT 10SM CLR 10/03 A3009 RMK AO2 T00960030
KCOM 230735Z AUTO 35003KT 10SM CLR 10/03 A3009 RMK AO2 T00980033
KCOM 230715Z AUTO 36005KT 10SM CLR 10/03 A3009 RMK AO2 T01020031
KCOM 230655Z AUTO 36006KT 10SM CLR 11/03 A3010 RMK AO2 T01060033
KCOM 230635Z AUTO 35006KT 10SM CLR 11/03 A3010 RMK AO2 T01110030
KCOM 230615Z AUTO 34005KT 10SM CLR 11/03 A3010 RMK AO2 T01100033
KCOM 230555Z AUTO 31003KT 10SM CLR 11/04 A3010 RMK AO2 T01080035 10209 20107 402250080
KCOM 230535Z AUTO 00000KT 10SM CLR 11/04 A3010 RMK AO2 T01130036
KCOM 230515Z AUTO 00000KT 10SM CLR 11/04 A3010 RMK AO2 T01140037
KCOM 230455Z AUTO 00000KT 10SM CLR 13/03 A3010 RMK AO2 T01250031
KCOM 230435Z AUTO 29004KT 10SM CLR 12/04 A3010 RMK AO2 T01220036
KCOM 230415Z AUTO 00000KT 10SM CLR 13/04 A3010 RMK AO2 T01320036
KCOM 230355Z AUTO 00000KT 10SM CLR 14/02 A3010 RMK AO2 T01400023
KCOM 230335Z AUTO 00000KT 10SM CLR 15/03 A3010 RMK AO2 T01470029
KCOM 230315Z AUTO 01005KT 10SM CLR 15/03 A3009 RMK AO2 T01490027
KCOM 230255Z AUTO 01005KT 10SM CLR 16/03 A3009 RMK AO2 T01570031
KCOM 230235Z AUTO 02003KT 10SM CLR 17/03 A3009 RMK AO2 T01650028
KCOM 230215Z AUTO 03003KT 10SM CLR 17/02 A3008 RMK AO2 T01690024
KCOM 230155Z AUTO 00000KT 10SM CLR 17/03 A3008 RMK AO2 T01720029
KCOM 230135Z AUTO 36003KT 10SM CLR 18/03 A3008 RMK AO2 T01790025
KCOM 230115Z AUTO 34003KT 10SM CLR 19/03 A3007 RMK AO2 T01850025
KCOM 230055Z AUTO 35005KT 10SM CLR 19/03 A3007 RMK AO2 T01930027
KCOM 230035Z AUTO 35008KT 10SM CLR 20/03 A3006 RMK AO2 T02040026
KCOM 230015Z AUTO 34008G14KT 10SM CLR 21/03 A3006 RMK AO2 T02090027
KCOM 222355Z AUTO 35007KT 10SM CLR 21/03 A3006 RMK AO2 T02050027 10225 20181
KCOM 222335Z AUTO 34012G15KT 10SM CLR 22/03 A3006 RMK AO2 T02220030
KCOM 222310Z AUTO 33005G15KT 10SM CLR 22/03 A3006 RMK AO2 T02210033
KCOM 222255Z AUTO 35012G16KT 10SM CLR 22/03 A3006 RMK AO2 T02240032
KCOM 222235Z AUTO 01012G18KT 10SM CLR 22/04 A3006 RMK AO2 T02210036
KCOM 222215Z AUTO 01009G18KT 10SM CLR 22/04 A3007 RMK AO2 T02210038
KCOM 222155Z AUTO 36013G16KT 10SM CLR 22/04 A3007 RMK AO2 T02220041
KCOM 222135Z AUTO 33010G17KT 10SM CLR 22/04 A3007 RMK AO2 T02220040
KCOM 222115Z AUTO 02007G18KT 10SM CLR 22/04 A3008 RMK AO2 T02160041
KCOM 222055Z AUTO 32011G18KT 10SM CLR 22/04 A3009 RMK AO2 T02180044
KCOM 222035Z AUTO 35013G20KT 320V030 10SM CLR 21/04 A3009 RMK AO2 T02110042
KCOM 222015Z AUTO 35009G19KT 10SM CLR 21/04 A3010 RMK AO2 T02100041
KCOM 221955Z AUTO 34015G19KT 10SM CLR 21/04 A3011 RMK AO2 T02060043
KCOM 221935Z AUTO 34011G16KT 10SM CLR 21/04 A3011 RMK AO2 T02050041
KCOM 221910Z AUTO 01009G16KT 10SM CLR 20/04 A3013 RMK AO2 T02000040
KCOM 221855Z AUTO 01010G14KT 10SM CLR 20/04 A3013 RMK AO2 T01970043
KCOM 221835Z AUTO 33011G20KT 10SM CLR 19/04 A3014 RMK AO2 T01930044
KCOM 221815Z AUTO 36012G20KT 10SM CLR 19/04 A3015 RMK AO2 T01880043
KCOM 221755Z AUTO 33011G19KT 310V010 10SM CLR 18/04 A3015 RMK AO2 T01810043 10181 20080
KCOM 221735Z AUTO 35012G18KT 10SM CLR 18/05 A3017 RMK AO2 T01790047
KCOM 221715Z AUTO 01010G17KT 10SM CLR 17/05 A3018 RMK AO2 T01700048
KCOM 221655Z AUTO 35013G18KT 10SM CLR 17/05 A3018 RMK AO2 T01670046